Preview of NWS' New Version of Forecast
This preview is not operational and should not be used for support decisions.

Terminal Aerodrome Forecast (TAF)

Issued by National Weather Service (NWS)

                            
444 
FTUS42 KKEY 260032 AAA
TAFMTH
TAF AMD
KMTH 260032Z 2601/2624 11013G20KT P6SM VCSH SCT015 BKN060 OVC080
      TEMPO 2601/2604 11018G25KT 4SM SHRA BKN015 OVC060
     FM260600 13011G20KT 5SM -RA VCTS SCT015CB
      TEMPO 2606/2610 11018G27KT 1SM +TSRA BR BKN015CB
     FM261000 13011G20KT 5SM -RA VCTS SCT015CB
      TEMPO 2610/2614 2SM -TSRA BKN025CB
     FM261400 13011G20KT 5SM -RA VCTS SCT015CB PROB30 2614/2620 2SM
      -TSRA BKN025CB=